Disclaimer

Please do not use the information listed here in-flight or in-navigation, as they are not provided to us by the airports but are provided by volunteers, so they might be outdated.

Search


Regions


Airport information page

Radio informations:
Ground (GND) - 129.35 MHz
Clearance delivery - 134.6 MHz
Approach (APP) - 335.8 MHz

Airport informations:
Latitude: 27° 38' 26.00" S
Longitude: 152° 42' 43.00" E
Elevation: 91 feet - 28 meters
Operating hours: Remarks
Operating agency: Military
Timezone: UTC+10
Fuel: Jet A1+, Jet A1 with icing inhibitor.

100/130 MIL Spec, low lead, aviation gasoline (BLUE)

Runway information:
04/22 - 4997 x 148 feet< - >1523 x 45 meters
15/33 - 9997 x 148 feet< - >3047 x 45 meters

Recent METARs:
YAMB 181600Z AUTO 17004KT //// // SCT032 22/20 Q1012
YAMB 181630Z AUTO 17003KT //// // ////// 22/20 Q1011
YAMB 181700Z AUTO 17003KT //// // ////// 22/20 Q1011

Airport on the map: